sensor_id;sensor_type;location;lat;lon;timestamp;pressure;altitude;pressure_sealevel;temperature;humidity
70971;BME280;58632;51.718;19.446;2023-11-19T00:01:26;100144.86;;;0.45;100.00
70971;BME280;58632;51.718;19.446;2023-11-19T00:03:52;100131.91;;;0.44;100.00
70971;BME280;58632;51.718;19.446;2023-11-19T00:06:18;100132.42;;;0.43;100.00
70971;BME280;58632;51.718;19.446;2023-11-19T00:08:44;100131.05;;;0.45;100.00
70971;BME280;58632;51.718;19.446;2023-11-19T00:11:09;100135.01;;;0.50;100.00
70971;BME280;58632;51.718;19.446;2023-11-19T00:13:36;100142.25;;;0.55;100.00
70971;BME280;58632;51.718;19.446;2023-11-19T00:16:01;100133.20;;;0.55;100.00
70971;BME280;58632;51.718;19.446;2023-11-19T00:18:31;100130.52;;;0.53;100.00
70971;BME280;58632;51.718;19.446;2023-11-19T00:20:58;100128.27;;;0.54;100.00
70971;BME280;58632;51.718;19.446;2023-11-19T00:23:23;100133.05;;;0.56;100.00
70971;BME280;58632;51.718;19.446;2023-11-19T00:25:49;100128.64;;;0.57;100.00
70971;BME280;58632;51.718;19.446;2023-11-19T00:28:19;100128.63;;;0.56;100.00
70971;BME280;58632;51.718;19.446;2023-11-19T00:30:44;100126.73;;;0.55;100.00
70971;BME280;58632;51.718;19.446;2023-11-19T00:33:10;100121.72;;;0.55;100.00
70971;BME280;58632;51.718;19.446;2023-11-19T00:35:38;100121.20;;;0.53;100.00
70971;BME280;58632;51.718;19.446;2023-11-19T00:38:03;100119.23;;;0.50;100.00
70971;BME280;58632;51.718;19.446;2023-11-19T00:40:29;100110.09;;;0.48;100.00
70971;BME280;58632;51.718;19.446;2023-11-19T00:42:54;100104.29;;;0.46;100.00
70971;BME280;58632;51.718;19.446;2023-11-19T00:45:20;100105.80;;;0.46;100.00
70971;BME280;58632;51.718;19.446;2023-11-19T00:47:45;100103.90;;;0.49;100.00
70971;BME280;58632;51.718;19.446;2023-11-19T00:50:11;100100.88;;;0.56;100.00
70971;BME280;58632;51.718;19.446;2023-11-19T00:52:37;100100.54;;;0.63;100.00
70971;BME280;58632;51.718;19.446;2023-11-19T00:55:03;100098.89;;;0.69;100.00
70971;BME280;58632;51.718;19.446;2023-11-19T00:57:31;100093.79;;;0.73;100.00
70971;BME280;58632;51.718;19.446;2023-11-19T01:00:00;100091.06;;;0.71;100.00
70971;BME280;58632;51.718;19.446;2023-11-19T01:02:26;100090.07;;;0.67;100.00
70971;BME280;58632;51.718;19.446;2023-11-19T01:04:54;100084.20;;;0.67;100.00
70971;BME280;58632;51.718;19.446;2023-11-19T01:07:21;100077.73;;;0.67;100.00
70971;BME280;58632;51.718;19.446;2023-11-19T01:09:47;100071.71;;;0.64;100.00
70971;BME280;58632;51.718;19.446;2023-11-19T01:12:12;100060.55;;;0.63;100.00
70971;BME280;58632;51.718;19.446;2023-11-19T01:14:38;100058.61;;;0.63;100.00
70971;BME280;58632;51.718;19.446;2023-11-19T01:17:03;100068.14;;;0.62;100.00
70971;BME280;58632;51.718;19.446;2023-11-19T01:19:30;100077.20;;;0.59;100.00
70971;BME280;58632;51.718;19.446;2023-11-19T01:21:58;100079.45;;;0.57;100.00
70971;BME280;58632;51.718;19.446;2023-11-19T01:24:23;100078.88;;;0.57;100.00
70971;BME280;58632;51.718;19.446;2023-11-19T01:26:49;100071.52;;;0.58;100.00
70971;BME280;58632;51.718;19.446;2023-11-19T01:29:15;100073.36;;;0.58;100.00
70971;BME280;58632;51.718;19.446;2023-11-19T01:31:45;100079.20;;;0.59;100.00
70971;BME280;58632;51.718;19.446;2023-11-19T01:34:10;100074.26;;;0.64;100.00
70971;BME280;58632;51.718;19.446;2023-11-19T01:36:36;100065.84;;;0.67;100.00
70971;BME280;58632;51.718;19.446;2023-11-19T01:39:02;100058.98;;;0.71;100.00
70971;BME280;58632;51.718;19.446;2023-11-19T01:41:29;100055.02;;;0.73;100.00
70971;BME280;58632;51.718;19.446;2023-11-19T01:43:55;100035.73;;;0.74;100.00
70971;BME280;58632;51.718;19.446;2023-11-19T01:46:20;100021.30;;;0.71;100.00
70971;BME280;58632;51.718;19.446;2023-11-19T01:48:46;100013.27;;;0.68;100.00
70971;BME280;58632;51.718;19.446;2023-11-19T01:51:15;100006.42;;;0.68;100.00
70971;BME280;58632;51.718;19.446;2023-11-19T01:53:42;99999.91;;;0.68;100.00
70971;BME280;58632;51.718;19.446;2023-11-19T01:56:08;99991.31;;;0.66;100.00
70971;BME280;58632;51.718;19.446;2023-11-19T01:58:37;99994.92;;;0.66;100.00
70971;BME280;58632;51.718;19.446;2023-11-19T02:01:06;99997.48;;;0.64;100.00
70971;BME280;58632;51.718;19.446;2023-11-19T02:03:34;99998.89;;;0.63;100.00
70971;BME280;58632;51.718;19.446;2023-11-19T02:06:02;99995.99;;;0.69;100.00
70971;BME280;58632;51.718;19.446;2023-11-19T02:08:28;99987.02;;;0.77;100.00
70971;BME280;58632;51.718;19.446;2023-11-19T02:10:54;99984.02;;;0.83;100.00
70971;BME280;58632;51.718;19.446;2023-11-19T02:13:25;99984.98;;;0.83;100.00
70971;BME280;58632;51.718;19.446;2023-11-19T02:15:52;99977.90;;;0.82;100.00
70971;BME280;58632;51.718;19.446;2023-11-19T02:18:18;99970.20;;;0.77;100.00
70971;BME280;58632;51.718;19.446;2023-11-19T02:20:44;99968.12;;;0.73;100.00
70971;BME280;58632;51.718;19.446;2023-11-19T02:23:09;99967.48;;;0.71;100.00
70971;BME280;58632;51.718;19.446;2023-11-19T02:25:35;99959.37;;;0.72;100.00
70971;BME280;58632;51.718;19.446;2023-11-19T02:28:02;99948.45;;;0.74;100.00
70971;BME280;58632;51.718;19.446;2023-11-19T02:30:28;99941.31;;;0.73;100.00
70971;BME280;58632;51.718;19.446;2023-11-19T02:32:54;99937.10;;;0.77;100.00
70971;BME280;58632;51.718;19.446;2023-11-19T02:35:23;99935.44;;;0.83;100.00
70971;BME280;58632;51.718;19.446;2023-11-19T02:37:51;99938.44;;;0.88;100.00
70971;BME280;58632;51.718;19.446;2023-11-19T02:40:16;99935.90;;;0.92;100.00
70971;BME280;58632;51.718;19.446;2023-11-19T02:42:42;99919.92;;;0.91;100.00
70971;BME280;58632;51.718;19.446;2023-11-19T02:45:08;99907.31;;;0.85;100.00
70971;BME280;58632;51.718;19.446;2023-11-19T02:47:39;99899.48;;;0.83;100.00
70971;BME280;58632;51.718;19.446;2023-11-19T02:50:04;99899.17;;;0.87;100.00
70971;BME280;58632;51.718;19.446;2023-11-19T02:52:35;99897.11;;;0.91;100.00
70971;BME280;58632;51.718;19.446;2023-11-19T02:55:02;99889.83;;;0.91;100.00
70971;BME280;58632;51.718;19.446;2023-11-19T02:57:30;99885.77;;;0.94;100.00
70971;BME280;58632;51.718;19.446;2023-11-19T02:59:56;99879.23;;;0.93;100.00
70971;BME280;58632;51.718;19.446;2023-11-19T03:02:22;99865.64;;;0.87;100.00
70971;BME280;58632;51.718;19.446;2023-11-19T03:04:50;99854.52;;;0.85;100.00
70971;BME280;58632;51.718;19.446;2023-11-19T03:07:16;99846.77;;;0.80;100.00
70971;BME280;58632;51.718;19.446;2023-11-19T03:09:43;99843.05;;;0.80;100.00
70971;BME280;58632;51.718;19.446;2023-11-19T03:12:09;99843.01;;;0.82;100.00
70971;BME280;58632;51.718;19.446;2023-11-19T03:14:34;99842.07;;;0.80;100.00
70971;BME280;58632;51.718;19.446;2023-11-19T03:17:00;99839.59;;;0.80;100.00
70971;BME280;58632;51.718;19.446;2023-11-19T03:19:25;99841.27;;;0.76;100.00
70971;BME280;58632;51.718;19.446;2023-11-19T03:21:52;99848.85;;;0.72;100.00
70971;BME280;58632;51.718;19.446;2023-11-19T03:24:19;99851.75;;;0.71;100.00
70971;BME280;58632;51.718;19.446;2023-11-19T03:26:48;99857.35;;;0.71;100.00
70971;BME280;58632;51.718;19.446;2023-11-19T03:29:17;99862.64;;;0.76;100.00
70971;BME280;58632;51.718;19.446;2023-11-19T03:31:45;99855.96;;;0.77;100.00
70971;BME280;58632;51.718;19.446;2023-11-19T03:34:10;99853.81;;;0.78;100.00
70971;BME280;58632;51.718;19.446;2023-11-19T03:36:36;99854.20;;;0.80;100.00
70971;BME280;58632;51.718;19.446;2023-11-19T03:39:01;99847.48;;;0.76;100.00
70971;BME280;58632;51.718;19.446;2023-11-19T03:41:28;99840.68;;;0.74;100.00
70971;BME280;58632;51.718;19.446;2023-11-19T03:43:53;99837.23;;;0.74;100.00
70971;BME280;58632;51.718;19.446;2023-11-19T03:46:19;99833.41;;;0.75;100.00
70971;BME280;58632;51.718;19.446;2023-11-19T03:48:46;99836.20;;;0.79;100.00
70971;BME280;58632;51.718;19.446;2023-11-19T03:51:12;99833.48;;;0.83;100.00
70971;BME280;58632;51.718;19.446;2023-11-19T03:53:43;99832.60;;;0.82;100.00
70971;BME280;58632;51.718;19.446;2023-11-19T03:56:09;99828.12;;;0.80;100.00
70971;BME280;58632;51.718;19.446;2023-11-19T03:58:35;99823.25;;;0.79;100.00
70971;BME280;58632;51.718;19.446;2023-11-19T04:01:01;99817.84;;;0.77;100.00
70971;BME280;58632;51.718;19.446;2023-11-19T04:03:26;99811.25;;;0.75;100.00
70971;BME280;58632;51.718;19.446;2023-11-19T04:05:52;99807.33;;;0.76;100.00
70971;BME280;58632;51.718;19.446;2023-11-19T04:08:17;99808.30;;;0.81;100.00
70971;BME280;58632;51.718;19.446;2023-11-19T04:10:43;99806.20;;;0.86;100.00
70971;BME280;58632;51.718;19.446;2023-11-19T04:13:08;99795.66;;;0.86;100.00
70971;BME280;58632;51.718;19.446;2023-11-19T04:15:34;99786.46;;;0.83;100.00
70971;BME280;58632;51.718;19.446;2023-11-19T04:17:59;99777.31;;;0.78;100.00
70971;BME280;58632;51.718;19.446;2023-11-19T04:20:25;99770.66;;;0.77;100.00
70971;BME280;58632;51.718;19.446;2023-11-19T04:22:51;99762.23;;;0.72;100.00
70971;BME280;58632;51.718;19.446;2023-11-19T04:25:16;99755.78;;;0.69;100.00
70971;BME280;58632;51.718;19.446;2023-11-19T04:27:44;99752.64;;;0.67;100.00
70971;BME280;58632;51.718;19.446;2023-11-19T04:30:15;99747.52;;;0.68;100.00
70971;BME280;58632;51.718;19.446;2023-11-19T04:32:41;99744.45;;;0.68;100.00
70971;BME280;58632;51.718;19.446;2023-11-19T04:35:06;99744.30;;;0.70;100.00
70971;BME280;58632;51.718;19.446;2023-11-19T04:37:34;99742.46;;;0.69;100.00
70971;BME280;58632;51.718;19.446;2023-11-19T04:40:00;99732.05;;;0.67;100.00
70971;BME280;58632;51.718;19.446;2023-11-19T04:42:26;99723.79;;;0.66;100.00
70971;BME280;58632;51.718;19.446;2023-11-19T04:44:53;99723.02;;;0.64;100.00
70971;BME280;58632;51.718;19.446;2023-11-19T04:47:19;99720.16;;;0.63;100.00
70971;BME280;58632;51.718;19.446;2023-11-19T04:49:49;99711.21;;;0.64;100.00
70971;BME280;58632;51.718;19.446;2023-11-19T04:52:14;99702.73;;;0.69;100.00
70971;BME280;58632;51.718;19.446;2023-11-19T04:54:43;99699.28;;;0.76;100.00
70971;BME280;58632;51.718;19.446;2023-11-19T04:57:09;99701.38;;;0.74;100.00
70971;BME280;58632;51.718;19.446;2023-11-19T04:59:37;99699.13;;;0.69;100.00
70971;BME280;58632;51.718;19.446;2023-11-19T05:02:03;99698.84;;;0.67;100.00
70971;BME280;58632;51.718;19.446;2023-11-19T05:04:29;99689.82;;;0.64;100.00
70971;BME280;58632;51.718;19.446;2023-11-19T05:06:54;99679.26;;;0.63;100.00
70971;BME280;58632;51.718;19.446;2023-11-19T05:09:22;99676.89;;;0.65;100.00
70971;BME280;58632;51.718;19.446;2023-11-19T05:11:47;99670.53;;;0.64;100.00
70971;BME280;58632;51.718;19.446;2023-11-19T05:14:13;99666.58;;;0.63;100.00
70971;BME280;58632;51.718;19.446;2023-11-19T05:16:39;99664.86;;;0.62;100.00
70971;BME280;58632;51.718;19.446;2023-11-19T05:19:05;99658.55;;;0.62;100.00
70971;BME280;58632;51.718;19.446;2023-11-19T05:21:30;99657.96;;;0.64;100.00
70971;BME280;58632;51.718;19.446;2023-11-19T05:23:56;99651.71;;;0.62;100.00
70971;BME280;58632;51.718;19.446;2023-11-19T05:26:22;99648.27;;;0.64;100.00
70971;BME280;58632;51.718;19.446;2023-11-19T05:28:48;99650.27;;;0.66;100.00
70971;BME280;58632;51.718;19.446;2023-11-19T05:31:15;99651.27;;;0.64;100.00
70971;BME280;58632;51.718;19.446;2023-11-19T05:33:41;99651.82;;;0.62;100.00
70971;BME280;58632;51.718;19.446;2023-11-19T05:36:06;99655.70;;;0.61;100.00
70971;BME280;58632;51.718;19.446;2023-11-19T05:38:33;99657.04;;;0.62;100.00
70971;BME280;58632;51.718;19.446;2023-11-19T05:40:59;99651.17;;;0.64;100.00
70971;BME280;58632;51.718;19.446;2023-11-19T05:43:24;99648.73;;;0.63;100.00
70971;BME280;58632;51.718;19.446;2023-11-19T05:45:52;99643.63;;;0.64;100.00
70971;BME280;58632;51.718;19.446;2023-11-19T05:48:20;99650.97;;;0.65;100.00
70971;BME280;58632;51.718;19.446;2023-11-19T05:50:48;99650.83;;;0.68;100.00
70971;BME280;58632;51.718;19.446;2023-11-19T05:53:15;99650.52;;;0.71;100.00
70971;BME280;58632;51.718;19.446;2023-11-19T05:55:40;99645.08;;;0.71;100.00
70971;BME280;58632;51.718;19.446;2023-11-19T05:58:14;99639.96;;;0.72;100.00
70971;BME280;58632;51.718;19.446;2023-11-19T06:00:39;99632.19;;;0.71;100.00
70971;BME280;58632;51.718;19.446;2023-11-19T06:03:05;99629.60;;;0.69;100.00
70971;BME280;58632;51.718;19.446;2023-11-19T06:05:31;99631.26;;;0.68;100.00
70971;BME280;58632;51.718;19.446;2023-11-19T06:07:56;99632.47;;;0.71;100.00
70971;BME280;58632;51.718;19.446;2023-11-19T06:10:22;99631.24;;;0.75;100.00
70971;BME280;58632;51.718;19.446;2023-11-19T06:12:54;99625.61;;;0.80;100.00
70971;BME280;58632;51.718;19.446;2023-11-19T06:15:21;99617.20;;;0.78;100.00
70971;BME280;58632;51.718;19.446;2023-11-19T06:17:46;99611.67;;;0.75;100.00
70971;BME280;58632;51.718;19.446;2023-11-19T06:20:12;99614.59;;;0.74;100.00
70971;BME280;58632;51.718;19.446;2023-11-19T06:22:39;99617.55;;;0.72;100.00
70971;BME280;58632;51.718;19.446;2023-11-19T06:25:07;99618.63;;;0.74;100.00
70971;BME280;58632;51.718;19.446;2023-11-19T06:27:33;99616.98;;;0.76;100.00
70971;BME280;58632;51.718;19.446;2023-11-19T06:30:01;99608.79;;;0.77;100.00
70971;BME280;58632;51.718;19.446;2023-11-19T06:32:26;99607.90;;;0.84;100.00
70971;BME280;58632;51.718;19.446;2023-11-19T06:34:51;99599.34;;;0.88;100.00
70971;BME280;58632;51.718;19.446;2023-11-19T06:37:17;99585.83;;;0.93;100.00
70971;BME280;58632;51.718;19.446;2023-11-19T06:39:43;99577.65;;;0.97;100.00
70971;BME280;58632;51.718;19.446;2023-11-19T06:42:09;99575.36;;;0.91;100.00
70971;BME280;58632;51.718;19.446;2023-11-19T06:44:34;99574.71;;;0.91;100.00
70971;BME280;58632;51.718;19.446;2023-11-19T06:47:00;99579.16;;;0.94;100.00
70971;BME280;58632;51.718;19.446;2023-11-19T06:49:25;99579.05;;;0.97;100.00
70971;BME280;58632;51.718;19.446;2023-11-19T06:51:51;99573.45;;;0.96;100.00
70971;BME280;58632;51.718;19.446;2023-11-19T06:54:16;99569.34;;;0.96;100.00
70971;BME280;58632;51.718;19.446;2023-11-19T06:56:42;99565.14;;;0.97;100.00
70971;BME280;58632;51.718;19.446;2023-11-19T06:59:08;99561.52;;;0.93;100.00
70971;BME280;58632;51.718;19.446;2023-11-19T07:01:34;99563.52;;;0.94;100.00
70971;BME280;58632;51.718;19.446;2023-11-19T07:04:01;99565.58;;;0.99;100.00
70971;BME280;58632;51.718;19.446;2023-11-19T07:06:33;99568.52;;;1.00;100.00
70971;BME280;58632;51.718;19.446;2023-11-19T07:08:58;99568.39;;;0.99;100.00
70971;BME280;58632;51.718;19.446;2023-11-19T07:11:24;99563.31;;;0.99;100.00
70971;BME280;58632;51.718;19.446;2023-11-19T07:13:49;99553.72;;;0.99;100.00
70971;BME280;58632;51.718;19.446;2023-11-19T07:16:15;99549.26;;;1.04;100.00
70971;BME280;58632;51.718;19.446;2023-11-19T07:18:40;99547.97;;;1.04;100.00
70971;BME280;58632;51.718;19.446;2023-11-19T07:21:09;99544.71;;;1.02;100.00
70971;BME280;58632;51.718;19.446;2023-11-19T07:23:35;99541.77;;;1.05;100.00
70971;BME280;58632;51.718;19.446;2023-11-19T07:26:01;99536.91;;;1.07;100.00
70971;BME280;58632;51.718;19.446;2023-11-19T07:28:29;99530.39;;;1.09;100.00
70971;BME280;58632;51.718;19.446;2023-11-19T07:30:55;99533.48;;;1.12;100.00
70971;BME280;58632;51.718;19.446;2023-11-19T07:33:21;99532.50;;;1.13;100.00
70971;BME280;58632;51.718;19.446;2023-11-19T07:35:46;99532.13;;;1.12;100.00
70971;BME280;58632;51.718;19.446;2023-11-19T07:38:12;99530.65;;;1.21;100.00
70971;BME280;58632;51.718;19.446;2023-11-19T07:40:37;99523.70;;;1.30;100.00
70971;BME280;58632;51.718;19.446;2023-11-19T07:43:03;99513.19;;;1.36;100.00
70971;BME280;58632;51.718;19.446;2023-11-19T07:45:28;99506.95;;;1.43;100.00
70971;BME280;58632;51.718;19.446;2023-11-19T07:47:54;99508.25;;;1.53;100.00
70971;BME280;58632;51.718;19.446;2023-11-19T07:50:20;99503.23;;;1.68;100.00
70971;BME280;58632;51.718;19.446;2023-11-19T07:52:45;99497.50;;;1.83;100.00
70971;BME280;58632;51.718;19.446;2023-11-19T07:55:11;99493.88;;;1.94;100.00
70971;BME280;58632;51.718;19.446;2023-11-19T07:57:37;99485.65;;;2.01;100.00
70971;BME280;58632;51.718;19.446;2023-11-19T08:00:03;99486.84;;;2.04;100.00
70971;BME280;58632;51.718;19.446;2023-11-19T08:02:29;99488.71;;;2.07;100.00
70971;BME280;58632;51.718;19.446;2023-11-19T08:04:54;99484.71;;;2.15;100.00
70971;BME280;58632;51.718;19.446;2023-11-19T08:07:20;99479.15;;;2.16;100.00
70971;BME280;58632;51.718;19.446;2023-11-19T08:09:46;99475.25;;;2.20;100.00
70971;BME280;58632;51.718;19.446;2023-11-19T08:12:12;99465.62;;;2.23;100.00
70971;BME280;58632;51.718;19.446;2023-11-19T08:14:39;99454.59;;;2.24;100.00
70971;BME280;58632;51.718;19.446;2023-11-19T08:17:05;99449.02;;;2.28;100.00
70971;BME280;58632;51.718;19.446;2023-11-19T08:19:30;99438.54;;;2.26;100.00
70971;BME280;58632;51.718;19.446;2023-11-19T08:21:56;99437.30;;;2.28;100.00
70971;BME280;58632;51.718;19.446;2023-11-19T08:24:22;99432.41;;;2.32;100.00
70971;BME280;58632;51.718;19.446;2023-11-19T08:26:48;99427.94;;;2.40;100.00
70971;BME280;58632;51.718;19.446;2023-11-19T08:29:13;99416.21;;;2.42;100.00
70971;BME280;58632;51.718;19.446;2023-11-19T08:31:39;99411.16;;;2.48;100.00
70971;BME280;58632;51.718;19.446;2023-11-19T08:34:05;99402.92;;;2.52;100.00
70971;BME280;58632;51.718;19.446;2023-11-19T08:36:37;99404.09;;;2.55;100.00
70971;BME280;58632;51.718;19.446;2023-11-19T08:39:02;99404.64;;;2.64;100.00
70971;BME280;58632;51.718;19.446;2023-11-19T08:41:28;99396.80;;;2.56;100.00
70971;BME280;58632;51.718;19.446;2023-11-19T08:43:54;99385.71;;;2.43;100.00
70971;BME280;58632;51.718;19.446;2023-11-19T08:46:22;99385.10;;;2.37;100.00
70971;BME280;58632;51.718;19.446;2023-11-19T08:48:47;99390.60;;;2.39;100.00
70971;BME280;58632;51.718;19.446;2023-11-19T08:51:12;99391.47;;;2.39;100.00
70971;BME280;58632;51.718;19.446;2023-11-19T08:53:38;99385.40;;;2.42;100.00
70971;BME280;58632;51.718;19.446;2023-11-19T08:56:03;99380.34;;;2.39;100.00
70971;BME280;58632;51.718;19.446;2023-11-19T08:58:29;99374.94;;;2.37;100.00
70971;BME280;58632;51.718;19.446;2023-11-19T09:00:55;99369.27;;;2.36;100.00
70971;BME280;58632;51.718;19.446;2023-11-19T09:03:21;99366.73;;;2.35;100.00
70971;BME280;58632;51.718;19.446;2023-11-19T09:05:47;99365.11;;;2.36;100.00
70971;BME280;58632;51.718;19.446;2023-11-19T09:08:12;99359.31;;;2.37;100.00
70971;BME280;58632;51.718;19.446;2023-11-19T09:10:37;99353.05;;;2.36;100.00
70971;BME280;58632;51.718;19.446;2023-11-19T09:13:03;99350.91;;;2.34;100.00
70971;BME280;58632;51.718;19.446;2023-11-19T09:15:31;99345.80;;;2.28;100.00
70971;BME280;58632;51.718;19.446;2023-11-19T09:17:56;99341.11;;;2.27;100.00
70971;BME280;58632;51.718;19.446;2023-11-19T09:20:22;99330.79;;;2.26;100.00
70971;BME280;58632;51.718;19.446;2023-11-19T09:22:50;99324.63;;;2.27;100.00
70971;BME280;58632;51.718;19.446;2023-11-19T09:25:18;99317.52;;;2.30;100.00
70971;BME280;58632;51.718;19.446;2023-11-19T09:27:44;99312.48;;;2.33;100.00
70971;BME280;58632;51.718;19.446;2023-11-19T09:30:10;99311.29;;;2.37;100.00
70971;BME280;58632;51.718;19.446;2023-11-19T09:32:36;99305.59;;;2.38;100.00
70971;BME280;58632;51.718;19.446;2023-11-19T09:35:03;99301.75;;;2.41;100.00
70971;BME280;58632;51.718;19.446;2023-11-19T09:37:28;99292.51;;;2.41;100.00
70971;BME280;58632;51.718;19.446;2023-11-19T09:39:57;99287.35;;;2.43;100.00
70971;BME280;58632;51.718;19.446;2023-11-19T09:42:23;99285.22;;;2.47;100.00
70971;BME280;58632;51.718;19.446;2023-11-19T09:44:49;99280.40;;;2.49;100.00
70971;BME280;58632;51.718;19.446;2023-11-19T09:47:15;99283.43;;;2.47;100.00
70971;BME280;58632;51.718;19.446;2023-11-19T09:49:42;99279.64;;;2.50;100.00
70971;BME280;58632;51.718;19.446;2023-11-19T09:52:07;99274.13;;;2.49;100.00
70971;BME280;58632;51.718;19.446;2023-11-19T09:54:33;99267.50;;;2.46;100.00
70971;BME280;58632;51.718;19.446;2023-11-19T09:56:59;99258.35;;;2.48;100.00
70971;BME280;58632;51.718;19.446;2023-11-19T09:59:28;99250.86;;;2.53;100.00
70971;BME280;58632;51.718;19.446;2023-11-19T10:01:54;99243.32;;;2.56;100.00
70971;BME280;58632;51.718;19.446;2023-11-19T10:04:21;99235.11;;;2.61;100.00
70971;BME280;58632;51.718;19.446;2023-11-19T10:06:47;99226.33;;;2.65;100.00
70971;BME280;58632;51.718;19.446;2023-11-19T10:09:13;99213.10;;;2.74;100.00
70971;BME280;58632;51.718;19.446;2023-11-19T10:11:40;99212.52;;;2.81;100.00
70971;BME280;58632;51.718;19.446;2023-11-19T10:14:06;99209.38;;;2.91;100.00
70971;BME280;58632;51.718;19.446;2023-11-19T10:16:31;99208.55;;;2.98;100.00
70971;BME280;58632;51.718;19.446;2023-11-19T10:18:59;99201.83;;;3.00;100.00
70971;BME280;58632;51.718;19.446;2023-11-19T10:21:25;99193.17;;;3.00;100.00
70971;BME280;58632;51.718;19.446;2023-11-19T10:23:59;99180.13;;;3.02;100.00
70971;BME280;58632;51.718;19.446;2023-11-19T10:26:26;99167.80;;;3.11;100.00
70971;BME280;58632;51.718;19.446;2023-11-19T10:28:52;99150.23;;;3.28;100.00
70971;BME280;58632;51.718;19.446;2023-11-19T10:31:18;99136.88;;;3.44;100.00
70971;BME280;58632;51.718;19.446;2023-11-19T10:33:46;99129.99;;;3.52;100.00
70971;BME280;58632;51.718;19.446;2023-11-19T10:36:12;99127.20;;;3.56;100.00
70971;BME280;58632;51.718;19.446;2023-11-19T10:38:38;99126.11;;;3.63;100.00
70971;BME280;58632;51.718;19.446;2023-11-19T10:41:04;99120.98;;;3.78;100.00
70971;BME280;58632;51.718;19.446;2023-11-19T10:43:30;99119.29;;;3.90;100.00
70971;BME280;58632;51.718;19.446;2023-11-19T10:46:17;99117.23;;;3.96;100.00
70971;BME280;58632;51.718;19.446;2023-11-19T10:48:46;99113.03;;;4.05;100.00
70971;BME280;58632;51.718;19.446;2023-11-19T10:51:11;99108.55;;;4.12;100.00
70971;BME280;58632;51.718;19.446;2023-11-19T10:53:40;99109.77;;;4.07;100.00
70971;BME280;58632;51.718;19.446;2023-11-19T10:56:10;99112.20;;;4.01;100.00
70971;BME280;58632;51.718;19.446;2023-11-19T10:58:36;99105.91;;;3.86;100.00
70971;BME280;58632;51.718;19.446;2023-11-19T11:01:07;99102.92;;;3.87;100.00
70971;BME280;58632;51.718;19.446;2023-11-19T11:03:39;99097.73;;;3.93;100.00
70971;BME280;58632;51.718;19.446;2023-11-19T11:06:05;99090.08;;;3.98;100.00
70971;BME280;58632;51.718;19.446;2023-11-19T11:08:30;99081.98;;;4.03;100.00
70971;BME280;58632;51.718;19.446;2023-11-19T11:10:58;99077.38;;;3.99;100.00
70971;BME280;58632;51.718;19.446;2023-11-19T11:13:25;99071.84;;;3.96;100.00
70971;BME280;58632;51.718;19.446;2023-11-19T11:15:52;99072.31;;;3.94;100.00
70971;BME280;58632;51.718;19.446;2023-11-19T11:18:19;99069.23;;;3.90;100.00
70971;BME280;58632;51.718;19.446;2023-11-19T11:20:45;99067.97;;;3.80;100.00
70971;BME280;58632;51.718;19.446;2023-11-19T11:23:23;99059.95;;;3.73;100.00
70971;BME280;58632;51.718;19.446;2023-11-19T11:33:41;99045.23;;;3.52;100.00
70971;BME280;58632;51.718;19.446;2023-11-19T11:36:22;99042.52;;;3.49;100.00
70971;BME280;58632;51.718;19.446;2023-11-19T11:38:48;99039.66;;;3.50;100.00
70971;BME280;58632;51.718;19.446;2023-11-19T11:41:21;99036.89;;;3.51;100.00
70971;BME280;58632;51.718;19.446;2023-11-19T11:43:51;99034.54;;;3.49;100.00
70971;BME280;58632;51.718;19.446;2023-11-19T11:49:05;99028.18;;;3.35;100.00
70971;BME280;58632;51.718;19.446;2023-11-19T11:54:09;99025.45;;;3.14;100.00
70971;BME280;58632;51.718;19.446;2023-11-19T11:56:38;99024.52;;;3.03;100.00
70971;BME280;58632;51.718;19.446;2023-11-19T11:59:19;99025.44;;;2.90;100.00
70971;BME280;58632;51.718;19.446;2023-11-19T12:01:57;99021.61;;;2.81;100.00
70971;BME280;58632;51.718;19.446;2023-11-19T12:04:25;99015.38;;;2.73;100.00
70971;BME280;58632;51.718;19.446;2023-11-19T12:10:08;99019.63;;;2.41;100.00
70971;BME280;58632;51.718;19.446;2023-11-19T12:12:36;99018.52;;;2.29;100.00
70971;BME280;58632;51.718;19.446;2023-11-19T12:15:06;99014.91;;;2.22;100.00
70971;BME280;58632;51.718;19.446;2023-11-19T12:19:59;99004.33;;;2.03;100.00
70971;BME280;58632;51.718;19.446;2023-11-19T12:22:25;98998.85;;;1.94;100.00
70971;BME280;58632;51.718;19.446;2023-11-19T12:24:51;98998.48;;;1.82;100.00
70971;BME280;58632;51.718;19.446;2023-11-19T12:27:17;98995.80;;;1.74;100.00
70971;BME280;58632;51.718;19.446;2023-11-19T12:29:43;98992.91;;;1.70;100.00
70971;BME280;58632;51.718;19.446;2023-11-19T12:32:09;98990.69;;;1.65;100.00
70971;BME280;58632;51.718;19.446;2023-11-19T12:34:35;98988.70;;;1.62;100.00
70971;BME280;58632;51.718;19.446;2023-11-19T12:37:03;98982.77;;;1.56;100.00
70971;BME280;58632;51.718;19.446;2023-11-19T12:39:32;98982.61;;;1.50;100.00
70971;BME280;58632;51.718;19.446;2023-11-19T12:41:57;98982.07;;;1.41;100.00
70971;BME280;58632;51.718;19.446;2023-11-19T12:44:26;98982.70;;;1.42;100.00
70971;BME280;58632;51.718;19.446;2023-11-19T12:47:04;98978.02;;;1.42;100.00
70971;BME280;58632;51.718;19.446;2023-11-19T12:49:31;98978.05;;;1.44;100.00
70971;BME280;58632;51.718;19.446;2023-11-19T12:51:57;98974.27;;;1.46;100.00
70971;BME280;58632;51.718;19.446;2023-11-19T12:54:33;98966.94;;;1.45;100.00
70971;BME280;58632;51.718;19.446;2023-11-19T12:56:59;98963.49;;;1.42;100.00
70971;BME280;58632;51.718;19.446;2023-11-19T12:59:24;98946.44;;;1.37;100.00
70971;BME280;58632;51.718;19.446;2023-11-19T13:01:58;98933.34;;;1.29;100.00
70971;BME280;58632;51.718;19.446;2023-11-19T13:04:27;98925.50;;;1.28;100.00